Time,TemperatureF,DewpointF,PressureIn,WindDirection,WindDirectionDegrees,WindSpeedMPH,WindSpeedGustMPH,Humidity,HourlyPrecipIn,Conditions,Clouds,dailyrainin,SoftwareType,DateUTC
2015-04-18 00:04:00,58.4,43.0,30.00,SSE,164,0.0,0.0,58,0.00,,,0.00,weatherlink.com 1.10,2015-04-18 04:04:00,
2015-04-18 00:19:00,58.6,44.0,29.99,SSE,163,0.0,0.0,58,0.00,,,0.00,weatherlink.com 1.10,2015-04-18 04:19:00,
2015-04-18 00:34:00,58.0,43.0,29.99,SSE,163,0.0,0.0,58,0.00,,,0.00,weatherlink.com 1.10,2015-04-18 04:34:00,
2015-04-18 00:49:00,57.8,43.0,29.99,SSE,163,0.0,0.0,58,0.00,,,0.00,weatherlink.com 1.10,2015-04-18 04:49:00,
2015-04-18 01:19:00,57.8,43.0,29.99,SSE,163,0.0,0.0,58,0.00,,,0.00,weatherlink.com 1.10,2015-04-18 05:19:00,
2015-04-18 01:34:00,57.4,43.0,29.99,SSE,163,0.0,0.0,58,0.00,,,0.00,weatherlink.com 1.10,2015-04-18 05:34:00,
2015-04-18 01:49:00,56.2,43.0,29.99,SSE,163,0.0,0.0,62,0.00,,,0.00,weatherlink.com 1.10,2015-04-18 05:49:00,
2015-04-18 02:04:00,55.3,43.0,29.99,SSE,163,0.0,0.0,64,0.00,,,0.00,weatherlink.com 1.10,2015-04-18 06:04:00,
2015-04-18 02:19:00,55.4,43.0,29.99,SSE,164,0.0,0.0,64,0.00,,,0.00,weatherlink.com 1.10,2015-04-18 06:19:00,
2015-04-18 02:34:00,55.1,44.0,29.99,SSE,166,0.0,1.0,66,0.00,,,0.00,weatherlink.com 1.10,2015-04-18 06:34:00,
2015-04-18 02:49:00,53.6,43.0,30.00,SSE,166,0.0,0.0,68,0.00,,,0.00,weatherlink.com 1.10,2015-04-18 06:49:00,
2015-04-18 03:04:00,53.1,44.0,30.00,SSE,166,0.0,0.0,71,0.00,,,0.00,weatherlink.com 1.10,2015-04-18 07:04:00,
2015-04-18 03:19:00,52.4,43.0,30.01,SSE,166,0.0,0.0,71,0.00,,,0.00,weatherlink.com 1.10,2015-04-18 07:19:00,
2015-04-18 03:34:00,52.0,43.0,30.01,SSE,166,0.0,0.0,72,0.00,,,0.00,weatherlink.com 1.10,2015-04-18 07:34:00,
2015-04-18 03:49:00,51.8,44.0,30.01,SSE,166,0.0,0.0,74,0.00,,,0.00,weatherlink.com 1.10,2015-04-18 07:49:00,
2015-04-18 04:04:00,51.4,45.0,30.02,SSE,166,0.0,0.0,78,0.00,,,0.00,weatherlink.com 1.10,2015-04-18 08:04:00,
2015-04-18 04:19:00,50.9,43.0,30.02,SSE,166,0.0,0.0,75,0.00,,,0.00,weatherlink.com 1.10,2015-04-18 08:19:00,
2015-04-18 04:34:00,50.4,44.0,30.01,SSE,166,0.0,0.0,79,0.00,,,0.00,weatherlink.com 1.10,2015-04-18 08:34:00,
2015-04-18 04:49:00,50.3,45.0,30.01,SSE,166,0.0,0.0,81,0.00,,,0.00,weatherlink.com 1.10,2015-04-18 08:49:00,
2015-04-18 05:05:00,49.9,45.0,30.00,SSE,166,0.0,0.0,82,0.00,,,0.00,weatherlink.com 1.10,2015-04-18 09:05:00,
2015-04-18 05:20:00,49.8,44.0,30.00,SSE,166,0.0,0.0,80,0.00,,,0.00,weatherlink.com 1.10,2015-04-18 09:20:00,
2015-04-18 05:35:00,49.8,44.0,30.00,SSE,166,0.0,0.0,80,0.00,,,0.00,weatherlink.com 1.10,2015-04-18 09:35:00,
2015-04-18 05:50:00,49.9,45.0,30.00,SSE,166,0.0,0.0,82,0.00,,,0.00,weatherlink.com 1.10,2015-04-18 09:50:00,
2015-04-18 06:05:00,49.7,44.0,30.01,SSE,166,0.0,1.0,80,0.00,,,0.00,weatherlink.com 1.10,2015-04-18 10:05:00,
2015-04-18 06:20:00,49.5,44.0,30.01,SSE,166,0.0,0.0,81,0.00,,,0.00,weatherlink.com 1.10,2015-04-18 10:20:00,
2015-04-18 06:35:00,49.2,44.0,30.01,SSE,166,0.0,0.0,81,0.00,,,0.00,weatherlink.com 1.10,2015-04-18 10:35:00,
2015-04-18 06:50:00,49.2,44.0,30.01,SSE,166,0.0,0.0,83,0.00,,,0.00,weatherlink.com 1.10,2015-04-18 10:50:00,
2015-04-18 07:05:00,48.9,44.0,30.02,SSE,166,0.0,0.0,84,0.00,,,0.00,weatherlink.com 1.10,2015-04-18 11:05:00,
2015-04-18 07:20:00,49.3,44.0,30.02,SSE,166,0.0,0.0,83,0.00,,,0.00,weatherlink.com 1.10,2015-04-18 11:20:00,
2015-04-18 07:35:00,49.8,45.0,30.02,SSE,166,0.0,0.0,83,0.00,,,0.00,weatherlink.com 1.10,2015-04-18 11:35:00,
2015-04-18 07:50:00,50.6,46.0,30.03,SSE,166,0.0,0.0,83,0.00,,,0.00,weatherlink.com 1.10,2015-04-18 11:50:00,
2015-04-18 08:05:00,52.3,47.0,30.03,SSE,166,0.0,0.0,81,0.00,,,0.00,weatherlink.com 1.10,2015-04-18 12:05:00,
2015-04-18 08:20:00,53.7,48.0,30.03,SSE,166,0.0,0.0,80,0.00,,,0.00,weatherlink.com 1.10,2015-04-18 12:20:00,
2015-04-18 08:35:00,55.3,48.0,30.03,SSE,166,0.0,0.0,76,0.00,,,0.00,weatherlink.com 1.10,2015-04-18 12:35:00,
2015-04-18 08:50:00,57.5,48.0,30.03,SSE,166,0.0,0.0,70,0.00,,,0.00,weatherlink.com 1.10,2015-04-18 12:50:00,
2015-04-18 09:05:00,61.3,48.0,30.03,SSE,166,0.0,1.0,63,0.00,,,0.00,weatherlink.com 1.10,2015-04-18 13:05:00,
2015-04-18 09:20:00,63.5,47.0,30.03,WSW,255,1.0,2.0,56,0.00,,,0.00,weatherlink.com 1.10,2015-04-18 13:20:00,
2015-04-18 09:35:00,65.3,49.0,30.03,WSW,253,0.0,1.0,55,0.00,,,0.00,weatherlink.com 1.10,2015-04-18 13:35:00,
2015-04-18 09:50:00,67.4,48.0,30.03,SW,231,0.0,2.0,51,0.00,,,0.00,weatherlink.com 1.10,2015-04-18 13:50:00,
2015-04-18 10:05:00,70.1,49.0,30.03,SW,225,0.0,1.0,48,0.00,,,0.00,weatherlink.com 1.10,2015-04-18 14:05:00,
2015-04-18 10:20:00,71.5,49.0,30.03,NE,46,1.0,2.0,45,0.00,,,0.00,weatherlink.com 1.10,2015-04-18 14:20:00,
2015-04-18 10:35:00,73.1,53.0,30.02,SSW,210,0.0,1.0,49,0.00,,,0.00,weatherlink.com 1.10,2015-04-18 14:35:00,
2015-04-18 10:50:00,72.9,51.0,30.02,SSW,210,0.0,3.0,47,0.00,,,0.00,weatherlink.com 1.10,2015-04-18 14:50:00,
2015-04-18 11:05:00,73.1,50.0,30.02,SSW,194,0.0,3.0,44,0.00,,,0.00,weatherlink.com 1.10,2015-04-18 15:05:00,
2015-04-18 11:20:00,73.7,50.0,30.02,SSW,195,1.0,3.0,43,0.00,,,0.00,weatherlink.com 1.10,2015-04-18 15:20:00,
2015-04-18 11:35:00,74.3,52.0,30.02,SSW,212,1.0,3.0,45,0.00,,,0.00,weatherlink.com 1.10,2015-04-18 15:35:00,
2015-04-18 11:50:00,74.9,50.0,30.02,South,191,2.0,5.0,42,0.00,,,0.00,weatherlink.com 1.10,2015-04-18 15:50:00,
2015-04-18 12:06:00,76.4,52.0,30.01,SSW,200,0.0,3.0,42,0.00,,,0.00,weatherlink.com 1.10,2015-04-18 16:06:00,
2015-04-18 12:21:00,77.3,52.0,30.00,SW,231,0.0,3.0,42,0.00,,,0.00,weatherlink.com 1.10,2015-04-18 16:21:00,
2015-04-18 12:36:00,77.7,53.0,30.02,SW,221,0.0,3.0,43,0.00,,,0.00,weatherlink.com 1.10,2015-04-18 16:36:00,
2015-04-18 12:51:00,78.6,52.0,30.02,WSW,242,1.0,3.0,40,0.00,,,0.00,weatherlink.com 1.10,2015-04-18 16:51:00,
2015-04-18 13:06:00,78.7,49.0,30.01,SW,224,0.0,3.0,35,0.00,,,0.00,weatherlink.com 1.10,2015-04-18 17:06:00,
2015-04-18 13:21:00,78.3,51.0,30.00,SW,215,1.0,1.0,39,0.00,,,0.00,weatherlink.com 1.10,2015-04-18 17:21:00,
2015-04-18 13:36:00,77.3,49.0,30.00,SE,134,0.0,2.0,37,0.00,,,0.00,weatherlink.com 1.10,2015-04-18 17:36:00,
2015-04-18 13:51:00,77.9,53.0,29.99,SSW,212,0.0,6.0,42,0.00,,,0.00,weatherlink.com 1.10,2015-04-18 17:51:00,
2015-04-18 14:06:00,79.1,53.0,29.98,SSW,198,0.0,3.0,40,0.00,,,0.00,weatherlink.com 1.10,2015-04-18 18:06:00,
2015-04-18 14:21:00,78.3,53.0,29.98,SSW,197,1.0,4.0,41,0.00,,,0.00,weatherlink.com 1.10,2015-04-18 18:21:00,
2015-04-18 14:36:00,79.2,52.0,29.98,SSW,211,0.0,4.0,39,0.00,,,0.00,weatherlink.com 1.10,2015-04-18 18:36:00,
2015-04-18 14:51:00,79.1,51.0,29.98,SSW,211,0.0,3.0,38,0.00,,,0.00,weatherlink.com 1.10,2015-04-18 18:51:00,
2015-04-18 15:06:00,79.9,53.0,29.97,SSW,197,0.0,3.0,39,0.00,,,0.00,weatherlink.com 1.10,2015-04-18 19:06:00,
2015-04-18 15:21:00,80.2,53.0,29.97,SSW,210,1.0,3.0,39,0.00,,,0.00,weatherlink.com 1.10,2015-04-18 19:21:00,
2015-04-18 15:36:00,80.3,52.0,29.96,SSW,207,1.0,4.0,38,0.00,,,0.00,weatherlink.com 1.10,2015-04-18 19:36:00,
2015-04-18 15:51:00,78.9,52.0,29.96,SSW,210,0.0,3.0,39,0.00,,,0.00,weatherlink.com 1.10,2015-04-18 19:51:00,
2015-04-18 16:06:00,78.7,54.0,29.96,South,173,0.0,3.0,42,0.00,,,0.00,weatherlink.com 1.10,2015-04-18 20:06:00,
2015-04-18 16:21:00,77.6,51.0,29.95,South,189,0.0,2.0,40,0.00,,,0.00,weatherlink.com 1.10,2015-04-18 20:21:00,
2015-04-18 16:36:00,77.2,54.0,29.95,SW,217,0.0,3.0,44,0.00,,,0.00,weatherlink.com 1.10,2015-04-18 20:36:00,
2015-04-18 16:51:00,77.6,54.0,29.95,SW,222,0.0,1.0,44,0.00,,,0.00,weatherlink.com 1.10,2015-04-18 20:51:00,
2015-04-18 17:06:00,76.9,53.0,29.93,SSW,197,0.0,4.0,43,0.00,,,0.00,weatherlink.com 1.10,2015-04-18 21:06:00,
2015-04-18 17:21:00,76.4,53.0,29.94,SW,233,0.0,3.0,44,0.00,,,0.00,weatherlink.com 1.10,2015-04-18 21:21:00,
2015-04-18 17:36:00,76.1,53.0,29.94,SW,224,0.0,2.0,45,0.00,,,0.00,weatherlink.com 1.10,2015-04-18 21:36:00,
2015-04-18 17:51:00,76.1,52.0,29.93,SSW,208,0.0,1.0,43,0.00,,,0.00,weatherlink.com 1.10,2015-04-18 21:51:00,
2015-04-18 18:06:00,76.0,53.0,29.93,SSW,203,0.0,1.0,45,0.00,,,0.00,weatherlink.com 1.10,2015-04-18 22:06:00,
2015-04-18 18:21:00,75.1,53.0,29.93,SSW,213,0.0,3.0,46,0.00,,,0.00,weatherlink.com 1.10,2015-04-18 22:21:00,
2015-04-18 18:37:00,74.5,53.0,29.92,SW,231,0.0,1.0,48,0.00,,,0.00,weatherlink.com 1.10,2015-04-18 22:37:00,
2015-04-18 18:51:00,73.6,52.0,29.93,SW,228,0.0,1.0,47,0.00,,,0.00,weatherlink.com 1.10,2015-04-18 22:51:00,
2015-04-18 19:06:00,73.3,52.0,29.92,SW,229,0.0,1.0,47,0.00,,,0.00,weatherlink.com 1.10,2015-04-18 23:06:00,
2015-04-18 19:21:00,73.7,53.0,29.91,SW,226,0.0,1.0,49,0.00,,,0.00,weatherlink.com 1.10,2015-04-18 23:21:00,
2015-04-18 19:36:00,73.2,52.0,29.91,SW,226,0.0,1.0,48,0.00,,,0.00,weatherlink.com 1.10,2015-04-18 23:36:00,
2015-04-18 19:51:00,71.3,52.0,29.92,SW,226,0.0,0.0,50,0.00,,,0.00,weatherlink.com 1.10,2015-04-18 23:51:00,
2015-04-18 20:06:00,69.7,51.0,29.92,SW,226,0.0,0.0,52,0.00,,,0.00,weatherlink.com 1.10,2015-04-19 00:06:00,
2015-04-18 20:21:00,68.5,52.0,29.92,SW,226,0.0,0.0,55,0.00,,,0.00,weatherlink.com 1.10,2015-04-19 00:21:00,
2015-04-18 20:36:00,67.7,51.0,29.93,SW,226,0.0,0.0,55,0.00,,,0.00,weatherlink.com 1.10,2015-04-19 00:36:00,